Terminal Aerodrome Forecast
Issued by NWS Medford, OR

Current Version | Previous Version | Text Only | Print | Product List | Glossary On
Versions: 1 2 3 4 5 6 7 8 9 10 11 12 13 14 15 16 17 18 19 20 21 22 23 24 25 26 27
060
FTUS46 KMFR 111736
TAFMFR
TAF
KMFR 111736Z 1118/1218 00000KT 1/4SM FZFG VV002
     FM112000 00000KT P6SM SKC
     FM120700 00000KT 6SM BR SKC
     FM121000 00000KT 1/2SM FZFG VV002=

USA.gov is the U.S. government's official web portal to all federal, state and local government web resources and services.